Terminal Aerodrome Forecast
Issued by NWS

Home | Current Version | Previous Version | Text Only | Print | Product List | Glossary On
Versions: 1 2 3 4 5 6 7 8 9 10 11 12 13 14 15 16 17 18 19 20 21 22 23 24 25 26 27 28 29 30 31 32 33 34 35 36 37 38 39 40 41 42 43 44 45 46 47
000
FTUS41 KBOX 072320
TAFBAF
TAF
KBAF 072320Z 0800/0824 19007KT P6SM SCT020 BKN040
     FM080200 19007KT P6SM SCT020 BKN130
     FM080400 19006KT 5SM BR SCT020 BKN050
     FM081200 VRB03KT P6SM OVC060
     FM081400 28005KT P6SM -SHRA OVC020=

USA.gov is the U.S. government's official web portal to all federal, state and local government web resources and services.